الصفحة الرئيسية
METAR-TAF:

METAR-TAF

مطار :

أولورو, أستراليا

دائرة عرض: 25-11-10S, خط طول: 130-58-32E, ارتفاع: 496 متر

مراقبة الطقس الحالي

تاريخ ووقت الإصدار 54 دقيقة قبل الساعة 20:00UTC
ريح 6 عقدة من الجنوب الشرقي
درجة الحرارة 12°درجة مئوية
الرطوبة 58%
ضغط 1023 hPa
الرؤية 10 كم أو أكثر

METAR: YAYE 172000Z AUTO 14006KT 9999 // NCD 12/04 Q1023

زمن: 06:24 (20:54 UTC)


TAF: مفقودة

أرصاد الطقس والتوقعات من أكثر من 4000 مطار (تقارير الطقس للمطار METAR والتنبؤ بالطقس بالمطارTAF).

المحطات المتاحة هي النقط الصفراء والحمراء على الخريطة.

حرك المؤشر فوق النقطة لمعرفة اسم المحطة.

ثم انقر لمعرفة أرصاد وتوقعات الطقس.

لتغيير الخارطة: اضغط على الأزرار الخضراء مع رمز الصليب الأسود للتكبير. على الزر الأخضر مع شرطة للتصغير، أو على الأسهم الخضراء للخرائط المجاورة.


METAR-TAF: